Time,TemperatureF,DewpointF,PressureIn,WindDirection,WindDirectionDegrees,WindSpeedMPH,WindSpeedGustMPH,Humidity,HourlyPrecipIn,Conditions,Clouds,dailyrainin,SoftwareType,DateUTC
2013-07-26 00:12:00,62.5,55.0,30.03,East,82,0.0,2.0,77,0.00,,,0.00,weatherlink.com 1.10,2013-07-26 04:12:00,
2013-07-26 00:27:00,62.1,55.0,30.03,East,94,0.0,2.0,77,0.00,,,0.00,weatherlink.com 1.10,2013-07-26 04:27:00,
2013-07-26 00:42:00,61.6,55.0,30.04,East,84,0.0,0.0,78,0.00,,,0.00,weatherlink.com 1.10,2013-07-26 04:42:00,
2013-07-26 00:57:00,61.2,55.0,30.04,East,80,0.0,0.0,80,0.00,,,0.00,weatherlink.com 1.10,2013-07-26 04:57:00,
2013-07-26 01:12:00,60.5,55.0,30.04,ENE,70,0.0,0.0,83,0.00,,,0.00,weatherlink.com 1.10,2013-07-26 05:12:00,
2013-07-26 01:27:00,60.1,56.0,30.04,ENE,70,0.0,0.0,85,0.00,,,0.00,weatherlink.com 1.10,2013-07-26 05:27:00,
2013-07-26 01:42:00,59.5,56.0,30.04,ENE,70,0.0,0.0,87,0.00,,,0.00,weatherlink.com 1.10,2013-07-26 05:42:00,
2013-07-26 01:57:00,59.0,56.0,30.04,ENE,70,0.0,0.0,88,0.00,,,0.00,weatherlink.com 1.10,2013-07-26 05:57:00,
2013-07-26 02:13:00,58.7,56.0,30.04,ENE,70,0.0,0.0,90,0.00,,,0.00,weatherlink.com 1.10,2013-07-26 06:13:00,
2013-07-26 02:27:00,58.6,56.0,30.04,ENE,70,0.0,0.0,90,0.00,,,0.00,weatherlink.com 1.10,2013-07-26 06:27:00,
2013-07-26 02:42:00,58.6,55.0,30.03,NNE,25,0.0,0.0,89,0.00,,,0.00,weatherlink.com 1.10,2013-07-26 06:42:00,
2013-07-26 02:57:00,58.4,55.0,30.03,NNE,26,0.0,0.0,89,0.00,,,0.00,weatherlink.com 1.10,2013-07-26 06:57:00,
2013-07-26 03:12:00,58.4,55.0,30.03,NW,314,0.0,1.0,89,0.00,,,0.00,weatherlink.com 1.10,2013-07-26 07:12:00,
2013-07-26 03:27:00,58.4,55.0,30.03,North,3,0.0,1.0,89,0.00,,,0.00,weatherlink.com 1.10,2013-07-26 07:27:00,
2013-07-26 03:42:00,58.3,56.0,30.03,North,4,0.0,0.0,90,0.00,,,0.00,weatherlink.com 1.10,2013-07-26 07:42:00,
2013-07-26 03:58:00,58.3,56.0,30.03,North,3,0.0,0.0,90,0.00,,,0.00,weatherlink.com 1.10,2013-07-26 07:58:00,
2013-07-26 04:12:00,58.3,56.0,30.03,North,3,0.0,0.0,90,0.00,,,0.00,weatherlink.com 1.10,2013-07-26 08:12:00,
2013-07-26 04:28:00,58.3,56.0,30.04,North,1,0.0,1.0,90,0.00,,,0.00,weatherlink.com 1.10,2013-07-26 08:28:00,
2013-07-26 04:43:00,58.2,55.0,30.04,North,360,0.0,3.0,90,0.00,,,0.00,weatherlink.com 1.10,2013-07-26 08:43:00,
2013-07-26 04:57:00,58.3,55.0,30.04,North,1,0.0,2.0,89,0.00,,,0.00,weatherlink.com 1.10,2013-07-26 08:57:00,
2013-07-26 05:12:00,58.4,55.0,30.04,North,6,0.0,0.0,89,0.00,,,0.00,weatherlink.com 1.10,2013-07-26 09:12:00,
2013-07-26 05:27:00,58.4,55.0,30.04,North,9,0.0,0.0,89,0.00,,,0.00,weatherlink.com 1.10,2013-07-26 09:27:00,
2013-07-26 05:42:00,58.2,55.0,30.03,North,8,0.0,0.0,89,0.00,,,0.00,weatherlink.com 1.10,2013-07-26 09:42:00,
2013-07-26 05:57:00,58.3,55.0,30.04,North,8,0.0,2.0,88,0.00,,,0.00,weatherlink.com 1.10,2013-07-26 09:57:00,
2013-07-26 06:13:00,58.4,55.0,30.04,North,357,0.0,0.0,88,0.00,,,0.00,weatherlink.com 1.10,2013-07-26 10:13:00,
2013-07-26 06:28:00,58.4,55.0,30.04,North,357,0.0,0.0,89,0.00,,,0.00,weatherlink.com 1.10,2013-07-26 10:28:00,
2013-07-26 06:43:00,58.4,55.0,30.05,NNW,346,0.0,2.0,89,0.00,,,0.00,weatherlink.com 1.10,2013-07-26 10:43:00,
2013-07-26 06:58:00,58.4,56.0,30.04,NNW,340,0.0,2.0,90,0.00,,,0.00,weatherlink.com 1.10,2013-07-26 10:58:00,
2013-07-26 07:13:00,58.7,56.0,30.05,NNW,348,0.0,1.0,90,0.00,,,0.00,weatherlink.com 1.10,2013-07-26 11:13:00,
2013-07-26 07:28:00,59.1,56.0,30.04,NNE,32,0.0,0.0,90,0.00,,,0.00,weatherlink.com 1.10,2013-07-26 11:28:00,
2013-07-26 07:43:00,59.5,56.0,30.04,North,354,0.0,0.0,89,0.00,,,0.00,weatherlink.com 1.10,2013-07-26 11:43:00,
2013-07-26 07:58:00,60.2,57.0,30.04,North,354,0.0,0.0,88,0.00,,,0.00,weatherlink.com 1.10,2013-07-26 11:58:00,
2013-07-26 08:13:00,60.7,57.0,30.04,NNE,20,0.0,1.0,86,0.00,,,0.00,weatherlink.com 1.10,2013-07-26 12:13:00,
2013-07-26 08:28:00,60.9,57.0,30.03,North,5,0.0,2.0,86,0.00,,,0.00,weatherlink.com 1.10,2013-07-26 12:28:00,
2013-07-26 08:43:00,61.3,57.0,30.03,NNW,348,1.0,1.0,86,0.00,,,0.00,weatherlink.com 1.10,2013-07-26 12:43:00,
2013-07-26 08:58:00,61.6,57.0,30.03,NNW,345,1.0,2.0,85,0.00,,,0.00,weatherlink.com 1.10,2013-07-26 12:58:00,
2013-07-26 09:13:00,62.3,57.0,30.03,North,352,0.0,3.0,83,0.00,,,0.00,weatherlink.com 1.10,2013-07-26 13:13:00,
2013-07-26 09:28:00,63.3,58.0,30.03,NE,44,1.0,2.0,82,0.00,,,0.00,weatherlink.com 1.10,2013-07-26 13:28:00,
2013-07-26 09:43:00,64.1,58.0,30.04,NNW,328,2.0,3.0,80,0.00,,,0.00,weatherlink.com 1.10,2013-07-26 13:43:00,
2013-07-26 09:58:00,64.6,58.0,30.04,NNW,340,0.0,5.0,80,0.00,,,0.00,weatherlink.com 1.10,2013-07-26 13:58:00,
2013-07-26 10:13:00,64.7,57.0,30.03,North,11,2.0,3.0,77,0.00,,,0.00,weatherlink.com 1.10,2013-07-26 14:13:00,
2013-07-26 10:28:00,65.0,59.0,30.03,NNE,20,0.0,2.0,80,0.00,,,0.00,weatherlink.com 1.10,2013-07-26 14:28:00,
2013-07-26 10:43:00,66.0,58.0,30.04,NNE,22,0.0,2.0,74,0.00,,,0.00,weatherlink.com 1.10,2013-07-26 14:43:00,
2013-07-26 10:58:00,67.5,59.0,30.04,NNE,23,0.0,1.0,75,0.00,,,0.00,weatherlink.com 1.10,2013-07-26 14:58:00,
2013-07-26 11:13:00,68.3,60.0,30.03,North,352,0.0,2.0,76,0.00,,,0.00,weatherlink.com 1.10,2013-07-26 15:13:00,
2013-07-26 11:28:00,68.6,59.0,30.02,ESE,113,1.0,6.0,71,0.00,,,0.00,weatherlink.com 1.10,2013-07-26 15:28:00,
2013-07-26 11:43:00,69.8,60.0,30.02,North,359,0.0,3.0,70,0.00,,,0.00,weatherlink.com 1.10,2013-07-26 15:43:00,
2013-07-26 11:58:00,70.2,60.0,30.02,North,354,0.0,5.0,71,0.00,,,0.00,weatherlink.com 1.10,2013-07-26 15:58:00,
2013-07-26 12:13:00,70.8,61.0,30.02,ENE,66,1.0,4.0,71,0.00,,,0.00,weatherlink.com 1.10,2013-07-26 16:13:00,
2013-07-26 12:28:00,71.4,64.0,30.02,North,5,0.0,4.0,76,0.00,,,0.00,weatherlink.com 1.10,2013-07-26 16:28:00,
2013-07-26 12:43:00,73.2,64.0,30.02,East,81,0.0,3.0,72,0.00,,,0.00,weatherlink.com 1.10,2013-07-26 16:43:00,
2013-07-26 12:58:00,74.5,61.0,30.01,ENE,58,0.0,3.0,63,0.00,,,0.00,weatherlink.com 1.10,2013-07-26 16:58:00,
2013-07-26 13:13:00,74.9,62.0,30.00,NE,37,0.0,2.0,65,0.00,,,0.00,weatherlink.com 1.10,2013-07-26 17:13:00,
2013-07-26 13:28:00,75.7,61.0,30.00,North,352,2.0,3.0,60,0.00,,,0.00,weatherlink.com 1.10,2013-07-26 17:28:00,
2013-07-26 13:44:00,76.0,61.0,30.00,North,359,2.0,3.0,61,0.00,,,0.00,weatherlink.com 1.10,2013-07-26 17:44:00,
2013-07-26 13:59:00,76.6,63.0,29.99,NE,34,0.0,2.0,62,0.00,,,0.00,weatherlink.com 1.10,2013-07-26 17:59:00,
2013-07-26 14:14:00,77.6,62.0,29.99,WNW,293,0.0,4.0,58,0.00,,,0.00,weatherlink.com 1.10,2013-07-26 18:14:00,
2013-07-26 14:29:00,77.3,62.0,29.99,NW,318,0.0,2.0,60,0.00,,,0.00,weatherlink.com 1.10,2013-07-26 18:29:00,
2013-07-26 14:44:00,77.7,61.0,29.99,ESE,113,0.0,2.0,57,0.00,,,0.00,weatherlink.com 1.10,2013-07-26 18:44:00,
2013-07-26 14:59:00,78.3,63.0,29.98,ENE,60,0.0,2.0,59,0.00,,,0.00,weatherlink.com 1.10,2013-07-26 18:59:00,
2013-07-26 15:14:00,79.4,62.0,29.98,NE,53,2.0,6.0,56,0.00,,,0.00,weatherlink.com 1.10,2013-07-26 19:14:00,
2013-07-26 15:29:00,79.0,63.0,29.98,SE,134,0.0,2.0,59,0.00,,,0.00,weatherlink.com 1.10,2013-07-26 19:29:00,
2013-07-26 15:44:00,79.6,62.0,29.98,North,350,0.0,2.0,55,0.00,,,0.00,weatherlink.com 1.10,2013-07-26 19:44:00,
2013-07-26 15:59:00,80.1,62.0,29.98,NE,51,0.0,2.0,54,0.00,,,0.00,weatherlink.com 1.10,2013-07-26 19:59:00,
2013-07-26 16:14:00,80.2,63.0,29.97,WNW,297,1.0,2.0,56,0.00,,,0.00,weatherlink.com 1.10,2013-07-26 20:14:00,
2013-07-26 16:29:00,80.4,64.0,29.97,ESE,119,0.0,3.0,57,0.00,,,0.00,weatherlink.com 1.10,2013-07-26 20:29:00,
2013-07-26 16:44:00,81.6,63.0,29.97,WSW,250,0.0,0.0,53,0.00,,,0.00,weatherlink.com 1.10,2013-07-26 20:44:00,
2013-07-26 16:59:00,82.0,64.0,29.96,NNW,336,0.0,0.0,54,0.00,,,0.00,weatherlink.com 1.10,2013-07-26 20:59:00,
2013-07-26 17:14:00,82.5,65.0,29.96,ESE,113,0.0,0.0,56,0.00,,,0.00,weatherlink.com 1.10,2013-07-26 21:14:00,
2013-07-26 17:29:00,81.3,62.0,29.96,NW,323,0.0,2.0,53,0.00,,,0.00,weatherlink.com 1.10,2013-07-26 21:29:00,
2013-07-26 17:44:00,82.0,65.0,29.96,NE,56,0.0,1.0,56,0.00,,,0.00,weatherlink.com 1.10,2013-07-26 21:44:00,
2013-07-26 17:59:00,81.4,65.0,29.95,NNW,348,0.0,1.0,58,0.00,,,0.00,weatherlink.com 1.10,2013-07-26 21:59:00,
2013-07-26 18:14:00,81.5,66.0,29.96,ENE,65,0.0,0.0,59,0.00,,,0.00,weatherlink.com 1.10,2013-07-26 22:14:00,
2013-07-26 18:29:00,81.2,65.0,29.95,ENE,66,0.0,0.0,59,0.00,,,0.00,weatherlink.com 1.10,2013-07-26 22:29:00,
2013-07-26 18:44:00,81.2,66.0,29.95,NE,40,0.0,0.0,60,0.00,,,0.00,weatherlink.com 1.10,2013-07-26 22:44:00,
2013-07-26 18:59:00,80.7,65.0,29.95,SE,132,0.0,0.0,59,0.00,,,0.00,weatherlink.com 1.10,2013-07-26 22:59:00,
2013-07-26 19:14:00,78.8,66.0,29.96,SE,144,0.0,0.0,64,0.00,,,0.00,weatherlink.com 1.10,2013-07-26 23:14:00,
2013-07-26 19:29:00,76.8,65.0,29.95,SE,144,0.0,0.0,67,0.00,,,0.00,weatherlink.com 1.10,2013-07-26 23:29:00,
2013-07-26 19:44:00,76.2,65.0,29.96,SE,143,0.0,0.0,69,0.00,,,0.00,weatherlink.com 1.10,2013-07-26 23:44:00,
2013-07-26 20:14:00,69.5,63.0,29.96,SE,143,0.0,0.0,79,0.00,,,0.00,weatherlink.com 1.10,2013-07-27 00:14:00,
2013-07-26 20:29:00,67.0,62.0,29.97,SE,145,0.0,0.0,84,0.00,,,0.00,weatherlink.com 1.10,2013-07-27 00:29:00,
2013-07-26 20:44:00,65.3,61.0,29.97,SE,143,0.0,0.0,87,0.00,,,0.00,weatherlink.com 1.10,2013-07-27 00:44:00,
2013-07-26 20:59:00,64.1,61.0,29.97,SE,145,0.0,0.0,90,0.00,,,0.00,weatherlink.com 1.10,2013-07-27 00:59:00,
2013-07-26 21:14:00,63.1,61.0,29.98,SE,145,0.0,0.0,91,0.00,,,0.00,weatherlink.com 1.10,2013-07-27 01:14:00,
2013-07-26 21:29:00,62.3,60.0,29.98,SE,145,0.0,0.0,93,0.00,,,0.00,weatherlink.com 1.10,2013-07-27 01:29:00,
2013-07-26 21:44:00,61.7,60.0,29.99,SE,145,0.0,0.0,93,0.00,,,0.00,weatherlink.com 1.10,2013-07-27 01:44:00,
2013-07-26 21:59:00,61.2,60.0,29.99,SE,145,0.0,0.0,94,0.00,,,0.00,weatherlink.com 1.10,2013-07-27 01:59:00,
2013-07-26 22:14:00,60.7,59.0,29.99,SE,145,0.0,0.0,95,0.00,,,0.00,weatherlink.com 1.10,2013-07-27 02:14:00,
2013-07-26 22:29:00,60.3,59.0,29.99,SE,146,0.0,0.0,95,0.00,,,0.00,weatherlink.com 1.10,2013-07-27 02:29:00,
2013-07-26 22:44:00,60.0,59.0,29.99,SE,145,0.0,0.0,96,0.00,,,0.00,weatherlink.com 1.10,2013-07-27 02:44:00,
2013-07-26 22:59:00,59.7,59.0,29.99,SE,145,0.0,0.0,96,0.00,,,0.00,weatherlink.com 1.10,2013-07-27 02:59:00,
2013-07-26 23:14:00,59.5,59.0,29.99,SE,145,0.0,0.0,97,0.00,,,0.00,weatherlink.com 1.10,2013-07-27 03:14:00,
2013-07-26 23:29:00,59.2,58.0,29.99,SE,145,0.0,0.0,97,0.00,,,0.00,weatherlink.com 1.10,2013-07-27 03:29:00,
2013-07-26 23:44:00,58.9,58.0,29.99,SE,146,0.0,0.0,97,0.00,,,0.00,weatherlink.com 1.10,2013-07-27 03:44:00,
2013-07-26 23:59:00,58.3,58.0,29.99,SE,146,0.0,0.0,97,0.00,,,0.00,weatherlink.com 1.10,2013-07-27 03:59:00,